Time;durP1;ratioP1;P1;durP2;ratioP2;P2;SDS_P1;SDS_P2;PMS_P1;PMS_P2;Temp;Humidity;BMP_temperature;BMP_pressure;BME280_temperature;BME280_humidity;BME280_pressure;Samples;Min_cycle;Max_cycle;Signal;HPM_P1;HPM_P2
2020/12/03 00:01:06;;;;;;;39.85;21.88;;;-1.50;1.00;;;;;;5067874;28;20196;-58
2020/12/03 00:03:54;;;;;;;38.05;21.88;;;-1.50;1.00;;;;;;5069579;28;20204;-56
2020/12/03 00:06:29;;;;;;;37.85;21.20;;;-1.50;1.00;;;;;;5066309;28;20220;-58
2020/12/03 00:09:01;;;;;;;36.22;21.73;;;-1.40;1.00;;;;;;5056348;28;20223;-55
2020/12/03 00:11:30;;;;;;;40.75;23.27;;;-1.40;1.00;;;;;;5062477;28;20228;-56
2020/12/03 00:13:56;;;;;;;44.92;24.88;;;-1.40;1.00;;;;;;5055560;28;20188;-56
2020/12/03 00:16:23;;;;;;;45.73;23.03;;;-1.40;1.00;;;;;;5068246;28;20658;-58
2020/12/03 00:18:49;;;;;;;48.25;23.65;;;-1.40;1.00;;;;;;5071990;28;20465;-57
2020/12/03 00:21:15;;;;;;;39.03;22.13;;;-1.40;1.00;;;;;;5075836;28;20287;-58
2020/12/03 00:23:41;;;;;;;48.30;23.60;;;-1.40;1.00;;;;;;5061849;28;20282;-58
2020/12/03 00:26:08;;;;;;;40.45;22.02;;;-1.40;1.00;;;;;;5064596;28;20522;-58
2020/12/03 00:28:37;;;;;;;37.33;22.65;;;-1.40;1.00;;;;;;5055245;28;20185;-58
2020/12/03 00:31:04;;;;;;;37.60;22.00;;;-1.40;1.00;;;;;;5069551;28;20173;-59
2020/12/03 00:33:31;;;;;;;40.05;21.98;;;-1.40;1.00;;;;;;5068521;28;20268;-58
2020/12/03 00:35:57;;;;;;;35.65;21.73;;;-1.30;1.00;;;;;;5067791;28;20189;-59
2020/12/03 00:38:24;;;;;;;40.33;21.77;;;-1.30;1.00;;;;;;5065541;28;20280;-58
2020/12/03 00:40:50;;;;;;;39.20;23.20;;;-1.20;1.00;;;;;;5062790;28;20310;-59
2020/12/03 00:43:18;;;;;;;38.03;20.50;;;-1.20;1.00;;;;;;5065703;28;20294;-57
2020/12/03 00:45:46;;;;;;;35.10;20.88;;;-1.20;1.00;;;;;;5069333;28;20905;-58
2020/12/03 00:48:16;;;;;;;40.13;20.80;;;-1.20;1.00;;;;;;5064892;28;20187;-57
2020/12/03 00:50:41;;;;;;;40.88;21.77;;;-1.20;1.00;;;;;;5067363;28;20173;-56
2020/12/03 00:53:09;;;;;;;36.80;21.03;;;-1.10;1.00;;;;;;5064894;28;20191;-57
2020/12/03 00:55:34;;;;;;;39.25;21.27;;;-1.10;1.00;;;;;;5069324;28;20204;-57
2020/12/03 00:58:00;;;;;;;36.30;20.40;;;-1.10;1.00;;;;;;5058961;28;20268;-57
2020/12/03 01:00:26;;;;;;;36.92;21.90;;;-1.00;1.00;;;;;;5069314;28;20282;-59
2020/12/03 01:02:52;;;;;;;36.43;20.37;;;-1.00;1.00;;;;;;5066982;28;20291;-59
2020/12/03 01:05:18;;;;;;;38.17;20.10;;;-1.00;1.00;;;;;;5062117;28;20182;-57
2020/12/03 01:07:45;;;;;;;33.28;20.83;;;-1.00;1.00;;;;;;5061761;28;20201;-57
2020/12/03 01:10:22;;;;;;;34.15;19.73;;;-1.00;1.00;;;;;;5068363;28;20173;-59
2020/12/03 01:12:48;;;;;;;36.60;18.95;;;-1.00;1.00;;;;;;5063700;28;20208;-58
2020/12/03 01:15:14;;;;;;;36.50;20.60;;;-1.00;1.00;;;;;;5049690;28;20300;-57
2020/12/03 01:17:41;;;;;;;35.35;19.85;;;-1.00;1.00;;;;;;5060414;28;21019;-58
2020/12/03 01:20:10;;;;;;;35.08;20.80;;;-1.00;1.00;;;;;;5073926;28;20256;-58
2020/12/03 01:22:36;;;;;;;33.13;19.70;;;-1.00;1.00;;;;;;5058855;28;20219;-54
2020/12/03 01:25:02;;;;;;;39.77;21.40;;;-1.00;1.00;;;;;;5062399;28;20186;-55
2020/12/03 01:27:28;;;;;;;35.42;19.23;;;-1.10;1.00;;;;;;5054738;28;20489;-57
2020/12/03 01:29:53;;;;;;;35.83;20.43;;;-1.10;1.00;;;;;;5063543;28;20173;-58
2020/12/03 01:32:19;;;;;;;37.47;20.57;;;-1.00;1.00;;;;;;5068485;28;20181;-57
2020/12/03 01:34:44;;;;;;;29.60;18.77;;;-1.00;1.00;;;;;;5068682;28;20260;-55
2020/12/03 01:37:12;;;;;;;31.90;19.57;;;-1.00;1.00;;;;;;5068216;28;20513;-56
2020/12/03 01:39:38;;;;;;;30.55;18.25;;;-0.90;1.00;;;;;;5071295;28;20174;-56
2020/12/03 01:42:04;;;;;;;30.48;18.40;;;-0.90;1.00;;;;;;5072660;28;20560;-58
2020/12/03 01:44:43;;;;;;;32.35;17.90;;;-0.90;1.00;;;;;;5054989;28;20308;-56
2020/12/03 01:47:37;;;;;;;36.45;19.42;;;-0.90;1.00;;;;;;5052765;28;20177;-53
2020/12/03 01:50:05;;;;;;;29.25;18.17;;;-0.80;1.00;;;;;;5063624;28;20246;-56
2020/12/03 01:52:31;;;;;;;35.22;20.27;;;-0.80;1.00;;;;;;5072110;28;20189;-57
2020/12/03 01:54:57;;;;;;;34.60;18.73;;;-0.80;1.00;;;;;;5068506;28;20192;-57
2020/12/03 01:57:47;;;;;;;29.10;19.13;;;-0.70;1.00;;;;;;5066850;28;20194;-57
2020/12/03 02:00:16;;;;;;;33.00;19.15;;;-0.60;1.00;;;;;;5070869;28;20176;-58
2020/12/03 02:02:46;;;;;;;30.58;19.60;;;-0.60;1.00;;;;;;5067214;28;20228;-58
2020/12/03 02:05:23;;;;;;;34.60;19.48;;;-0.50;1.00;;;;;;5072082;28;20219;-57
2020/12/03 02:07:49;;;;;;;34.88;21.35;;;-0.50;1.00;;;;;;5056260;28;20188;-55
2020/12/03 02:10:17;;;;;;;35.45;20.45;;;-0.40;1.00;;;;;;5053277;28;20264;-55
2020/12/03 02:12:43;;;;;;;36.28;19.17;;;-0.40;1.00;;;;;;5055889;28;20181;-56
2020/12/03 02:15:10;;;;;;;32.83;19.52;;;-0.40;1.00;;;;;;5053633;28;20208;-57
2020/12/03 02:17:37;;;;;;;34.45;20.35;;;-0.30;1.00;;;;;;5053985;28;20177;-54
2020/12/03 02:20:13;;;;;;;33.70;20.23;;;-0.30;1.00;;;;;;5070520;28;20220;-56
2020/12/03 02:22:39;;;;;;;35.25;19.50;;;-0.20;1.00;;;;;;5071276;28;20213;-56
2020/12/03 02:25:06;;;;;;;38.55;21.42;;;-0.20;1.00;;;;;;5058022;28;20209;-57
2020/12/03 02:27:32;;;;;;;35.17;21.08;;;-0.20;1.00;;;;;;5065277;28;20185;-55
2020/12/03 02:29:57;;;;;;;36.40;21.25;;;-0.10;1.00;;;;;;5059045;28;20186;-56
2020/12/03 02:32:23;;;;;;;36.60;21.33;;;-0.10;1.00;;;;;;5066886;28;20529;-56
2020/12/03 02:34:49;;;;;;;34.97;20.97;;;-0.10;1.00;;;;;;5063581;28;20181;-58
2020/12/03 02:37:15;;;;;;;36.87;20.93;;;0.00;1.00;;;;;;5070279;28;20232;-54
2020/12/03 02:39:41;;;;;;;39.47;23.00;;;-0.10;1.00;;;;;;5071031;28;20433;-58
2020/12/03 02:42:11;;;;;;;35.40;22.33;;;-0.10;1.00;;;;;;5069325;28;20464;-56
2020/12/03 02:44:45;;;;;;;38.35;21.80;;;-0.10;1.00;;;;;;5069481;28;20193;-56
2020/12/03 02:47:13;;;;;;;36.55;22.63;;;-0.10;1.00;;;;;;5069264;28;20188;-56
2020/12/03 02:49:41;;;;;;;38.47;21.83;;;-0.10;1.00;;;;;;5069458;28;20231;-53
2020/12/03 02:52:19;;;;;;;35.67;21.50;;;-0.10;1.00;;;;;;5071615;28;20161;-57
2020/12/03 02:54:46;;;;;;;36.00;22.50;;;-0.10;1.00;;;;;;5054744;28;20296;-55
2020/12/03 02:57:12;;;;;;;40.40;22.88;;;-0.10;1.00;;;;;;5051452;28;20182;-55
2020/12/03 02:59:38;;;;;;;39.15;22.90;;;-0.10;1.00;;;;;;5051701;28;20193;-56
2020/12/03 03:02:05;;;;;;;41.00;22.70;;;-0.10;1.00;;;;;;5056416;28;20619;-57
2020/12/03 03:04:31;;;;;;;40.00;23.02;;;-0.10;1.00;;;;;;5061951;28;20268;-54
2020/12/03 03:06:57;;;;;;;35.45;21.63;;;-0.10;1.00;;;;;;5051111;28;20208;-56
2020/12/03 03:09:23;;;;;;;39.80;22.47;;;-0.10;1.00;;;;;;5065498;28;20193;-57
2020/12/03 03:11:49;;;;;;;40.60;23.00;;;-0.10;1.00;;;;;;5071011;28;20408;-58
2020/12/03 03:14:15;;;;;;;40.47;22.90;;;-0.10;1.00;;;;;;5067424;28;20192;-55
2020/12/03 03:16:41;;;;;;;42.22;22.73;;;-0.10;1.00;;;;;;5069328;28;20518;-58
2020/12/03 03:19:07;;;;;;;36.13;22.63;;;-0.10;1.00;;;;;;5070575;28;20595;-58
2020/12/03 03:21:33;;;;;;;42.03;23.25;;;-0.10;1.00;;;;;;5076402;28;20206;-56
2020/12/03 03:23:59;;;;;;;45.47;25.50;;;-0.10;1.00;;;;;;5060793;28;20206;-56
2020/12/03 03:26:25;;;;;;;39.45;21.58;;;0.00;1.00;;;;;;5062179;28;20237;-55
2020/12/03 03:28:51;;;;;;;37.53;23.77;;;0.00;1.00;;;;;;5065039;28;20193;-58
2020/12/03 03:31:18;;;;;;;33.97;21.33;;;0.10;1.00;;;;;;5070551;28;20174;-57
2020/12/03 03:33:43;;;;;;;37.50;22.20;;;0.10;1.00;;;;;;5065173;28;20475;-55
2020/12/03 03:36:09;;;;;;;37.20;22.00;;;0.10;1.00;;;;;;5073550;28;20227;-59
2020/12/03 03:38:35;;;;;;;41.37;24.00;;;0.10;1.00;;;;;;5069386;28;20177;-58
2020/12/03 03:41:01;;;;;;;37.67;22.30;;;0.10;1.00;;;;;;5057352;28;20228;-59
2020/12/03 03:43:27;;;;;;;40.97;22.77;;;0.10;1.00;;;;;;5068905;28;20253;-57
2020/12/03 03:45:52;;;;;;;38.43;22.70;;;0.10;1.00;;;;;;5054443;28;20459;-56
2020/12/03 03:48:18;;;;;;;40.47;23.20;;;0.20;1.00;;;;;;5057461;28;21009;-58
2020/12/03 03:50:44;;;;;;;36.83;21.70;;;0.20;1.00;;;;;;5063529;28;20189;-58
2020/12/03 03:53:10;;;;;;;39.40;22.60;;;0.20;1.00;;;;;;5070331;28;20507;-55
2020/12/03 03:55:35;;;;;;;34.67;21.80;;;0.20;1.00;;;;;;5065695;28;20189;-59
2020/12/03 03:58:01;;;;;;;41.93;23.60;;;0.20;1.00;;;;;;5058001;28;20722;-54
2020/12/03 04:00:26;;;;;;;43.93;24.80;;;0.20;1.00;;;;;;5064313;28;20190;-58
2020/12/03 04:02:52;;;;;;;40.23;23.27;;;0.20;1.00;;;;;;5058976;28;20628;-58
2020/12/03 04:05:18;;;;;;;40.90;22.47;;;0.30;1.00;;;;;;5056718;28;20179;-58
2020/12/03 04:07:45;;;;;;;36.30;22.00;;;0.30;1.00;;;;;;5067908;28;20171;-58
2020/12/03 04:10:11;;;;;;;39.92;23.27;;;0.30;1.00;;;;;;5065835;28;20169;-57
2020/12/03 04:12:39;;;;;;;36.57;21.00;;;0.40;1.00;;;;;;5055885;28;20204;-57
2020/12/03 04:15:05;;;;;;;39.63;22.48;;;0.40;1.00;;;;;;5067292;28;20495;-58
2020/12/03 04:17:31;;;;;;;39.47;22.27;;;0.40;1.00;;;;;;5065872;28;20525;-57
2020/12/03 04:19:57;;;;;;;41.40;24.27;;;0.40;1.00;;;;;;5066419;28;20181;-59
2020/12/03 04:22:24;;;;;;;37.23;23.30;;;0.40;1.00;;;;;;5062589;28;20177;-56
2020/12/03 04:24:50;;;;;;;40.20;23.85;;;0.40;1.00;;;;;;5051603;28;20796;-56
2020/12/03 04:27:16;;;;;;;40.08;22.80;;;0.40;1.00;;;;;;5049454;28;20206;-56
2020/12/03 04:29:42;;;;;;;42.20;23.95;;;0.40;1.00;;;;;;5060989;28;20186;-58
2020/12/03 04:32:07;;;;;;;36.28;22.00;;;0.40;1.00;;;;;;5059250;28;20216;-59
2020/12/03 04:34:33;;;;;;;43.27;22.83;;;0.40;1.00;;;;;;5063132;28;20191;-57
2020/12/03 04:36:59;;;;;;;41.20;22.93;;;0.40;1.00;;;;;;5053079;28;20583;-54
2020/12/03 04:39:25;;;;;;;48.53;25.83;;;0.40;1.00;;;;;;5061064;28;20254;-56
2020/12/03 04:41:50;;;;;;;46.27;23.10;;;0.40;1.00;;;;;;5063013;28;20468;-58
2020/12/03 04:44:26;;;;;;;40.67;23.10;;;0.40;1.00;;;;;;5053822;28;20206;-57
2020/12/03 04:47:10;;;;;;;40.15;23.30;;;0.40;1.00;;;;;;5056874;28;20553;-57
2020/12/03 04:49:44;;;;;;;39.97;23.17;;;0.40;1.00;;;;;;5048917;28;20162;-59
2020/12/03 04:52:18;;;;;;;48.88;24.67;;;0.40;1.00;;;;;;5063243;28;20185;-59
2020/12/03 04:54:57;;;;;;;43.55;22.95;;;0.40;1.00;;;;;;5057185;28;20179;-59
2020/12/03 04:57:31;;;;;;;42.25;22.60;;;0.40;1.00;;;;;;5050510;28;20639;-57
2020/12/03 05:00:05;;;;;;;38.10;21.95;;;0.40;1.00;;;;;;5065041;28;20178;-57
2020/12/03 05:02:48;;;;;;;38.90;22.73;;;0.40;1.00;;;;;;5064412;28;20179;-58
2020/12/03 05:05:31;;;;;;;42.08;23.65;;;0.40;1.00;;;;;;5051599;28;20174;-56
2020/12/03 05:08:03;;;;;;;40.92;23.17;;;0.40;1.00;;;;;;5058251;28;20192;-58
2020/12/03 05:10:43;;;;;;;40.97;22.42;;;0.40;1.00;;;;;;5073505;28;20232;-59
2020/12/03 05:13:24;;;;;;;37.47;22.60;;;0.50;1.00;;;;;;5059225;28;20181;-56
2020/12/03 05:15:56;;;;;;;39.97;23.38;;;0.50;1.00;;;;;;5068582;28;20196;-59
2020/12/03 05:18:46;;;;;;;42.80;22.23;;;0.50;1.00;;;;;;5051390;28;20199;-56
2020/12/03 05:21:17;;;;;;;37.20;21.90;;;0.50;1.00;;;;;;5041533;28;20193;-57
2020/12/03 05:23:43;;;;;;;44.50;24.20;;;0.60;1.00;;;;;;5045499;28;20211;-59
2020/12/03 05:26:18;;;;;;;38.50;22.40;;;0.60;1.00;;;;;;5043789;28;20198;-58
2020/12/03 05:28:58;;;;;;;43.40;22.40;;;0.60;1.00;;;;;;5045459;28;20185;-58
2020/12/03 05:31:26;;;;;;;42.20;22.40;;;0.60;1.00;;;;;;5049809;28;20488;-57
2020/12/03 05:33:52;;;;;;;43.25;23.50;;;0.60;1.00;;;;;;5053781;28;20190;-59
2020/12/03 05:36:31;;;;;;;38.90;21.90;;;0.60;1.00;;;;;;5047250;28;20645;-59
2020/12/03 05:38:58;;;;;;;43.80;22.27;;;0.60;1.00;;;;;;5056344;28;20217;-61
2020/12/03 05:41:25;;;;;;;43.67;23.90;;;0.70;1.00;;;;;;5070988;28;20579;-60
2020/12/03 05:43:51;;;;;;;37.50;22.73;;;0.70;1.00;;;;;;5052455;28;20205;-59
2020/12/03 05:46:21;;;;;;;43.60;22.50;;;0.70;1.00;;;;;;5065264;28;20890;-60
2020/12/03 05:49:04;;;;;;;39.90;22.40;;;0.60;1.00;;;;;;5066944;28;20242;-58
2020/12/03 05:51:32;;;;;;;37.83;21.48;;;0.60;1.00;;;;;;5049830;28;20209;-56
2020/12/03 05:54:03;;;;;;;46.75;23.58;;;0.70;1.00;;;;;;5065230;28;20197;-57
2020/12/03 05:56:31;;;;;;;44.50;23.63;;;0.70;1.00;;;;;;5059331;28;20644;-59
2020/12/03 05:59:17;;;;;;;41.80;21.98;;;0.60;1.00;;;;;;5052200;28;20539;-59
2020/12/03 06:02:05;;;;;;;46.78;24.00;;;0.70;1.00;;;;;;5064443;28;20177;-60
2020/12/03 06:05:11;;;;;;;42.83;24.60;;;0.70;1.00;;;;;;5056721;28;20235;-59
2020/12/03 06:07:50;;;;;;;38.85;21.35;;;0.60;1.00;;;;;;5055258;28;20644;-60
2020/12/03 06:10:54;;;;;;;41.25;23.27;;;0.50;1.00;;;;;;5059949;28;20181;-59
2020/12/03 06:13:27;;;;;;;48.38;23.80;;;0.40;1.00;;;;;;5062026;28;20251;-58
2020/12/03 06:16:00;;;;;;;48.85;24.95;;;0.40;1.00;;;;;;5068241;28;20178;-58
2020/12/03 06:18:28;;;;;;;47.47;27.30;;;0.30;1.00;;;;;;5069783;28;20196;-59
2020/12/03 06:21:02;;;;;;;50.92;24.95;;;0.20;1.00;;;;;;5076057;28;20179;-59
2020/12/03 06:23:34;;;;;;;44.80;24.95;;;0.10;9.70;;;;;;5062547;28;20200;-59
2020/12/03 06:26:31;;;;;;;44.17;23.55;;;0.10;21.40;;;;;;5071669;28;20572;-60
2020/12/03 06:29:24;;;;;;;46.22;24.15;;;0.00;28.20;;;;;;5055654;28;20278;-61
2020/12/03 06:32:27;;;;;;;52.55;25.42;;;0.00;37.90;;;;;;5061185;28;20177;-61
2020/12/03 06:35:13;;;;;;;40.65;22.73;;;0.00;46.30;;;;;;5063290;28;20189;-60
2020/12/03 06:38:08;;;;;;;43.70;23.38;;;0.00;52.50;;;;;;5071563;28;20185;-61
2020/12/03 06:40:39;;;;;;;52.38;25.58;;;0.00;57.60;;;;;;5031288;28;20267;-60
2020/12/03 06:43:22;;;;;;;47.58;25.25;;;0.10;61.40;;;;;;5066553;28;20220;-60
2020/12/03 06:46:25;;;;;;;48.53;26.00;;;0.10;64.50;;;;;;5055960;28;20189;-60
2020/12/03 06:49:02;;;;;;;44.38;24.80;;;0.10;68.80;;;;;;5062521;28;20226;-61
2020/12/03 06:51:49;;;;;;;52.22;26.50;;;0.10;74.00;;;;;;5059774;28;20177;-61
2020/12/03 06:54:54;;;;;;;56.15;27.73;;;0.20;77.20;;;;;;5066872;28;20223;-61
2020/12/03 06:57:56;;;;;;;48.88;26.40;;;0.20;78.20;;;;;;5043633;28;20688;-60
2020/12/03 07:00:42;;;;;;;53.58;26.42;;;0.20;82.70;;;;;;5063510;28;20394;-61
2020/12/03 07:03:35;;;;;;;52.25;27.45;;;0.20;86.90;;;;;;5058963;28;20597;-59
2020/12/03 07:06:33;;;;;;;56.40;28.30;;;0.20;91.60;;;;;;5069862;28;20185;-59
2020/12/03 07:09:15;;;;;;;51.72;27.85;;;0.20;93.60;;;;;;5062017;28;20678;-59
2020/12/03 07:11:51;;;;;;;53.45;28.42;;;0.20;94.30;;;;;;5056600;28;20182;-60
2020/12/03 07:14:34;;;;;;;58.38;29.17;;;0.20;94.40;;;;;;5061800;28;20636;-61
2020/12/03 07:17:45;;;;;;;55.40;28.48;;;0.10;93.90;;;;;;5054792;28;20181;-62
2020/12/03 07:20:26;;;;;;;55.03;28.25;;;0.10;97.00;;;;;;5069930;28;20173;-61
2020/12/03 07:23:02;;;;;;;54.15;29.48;;;0.20;97.50;;;;;;5066723;28;20205;-60
2020/12/03 07:25:28;;;;;;;50.90;26.98;;;0.20;97.60;;;;;;5070184;28;20192;-60
2020/12/03 07:28:18;;;;;;;56.60;28.70;;;0.20;97.50;;;;;;5069479;28;20204;-60
2020/12/03 07:30:49;;;;;;;55.45;27.88;;;0.20;97.20;;;;;;5056695;28;20186;-60
2020/12/03 07:33:35;;;;;;;51.67;26.60;;;0.30;97.10;;;;;;5067219;28;20174;-60
2020/12/03 07:36:35;;;;;;;55.83;28.70;;;0.30;96.80;;;;;;5066885;28;20213;-60
2020/12/03 07:39:17;;;;;;;59.90;28.58;;;0.30;95.90;;;;;;5063814;28;20515;-60
2020/12/03 07:41:54;;;;;;;51.55;28.25;;;0.30;96.80;;;;;;5062132;28;20272;-59
2020/12/03 07:44:29;;;;;;;56.72;28.15;;;0.30;98.60;;;;;;5065376;28;20201;-60
2020/12/03 07:47:13;;;;;;;53.17;29.38;;;0.40;99.70;;;;;;5069829;28;20255;-59
2020/12/03 07:49:44;;;;;;;57.72;29.92;;;0.40;99.00;;;;;;5068534;28;20212;-59
2020/12/03 07:52:39;;;;;;;51.80;30.50;;;0.40;98.20;;;;;;5070405;28;20166;-60
2020/12/03 07:55:37;;;;;;;56.90;29.00;;;0.40;97.30;;;;;;5053102;28;20248;-59
2020/12/03 07:58:03;;;;;;;59.05;30.30;;;0.40;97.80;;;;;;5056552;28;20191;-60
2020/12/03 08:00:51;;;;;;;57.80;30.33;;;0.50;96.60;;;;;;5053025;28;20285;-60
2020/12/03 08:03:38;;;;;;;67.32;30.63;;;0.50;94.00;;;;;;5052417;28;20450;-60
2020/12/03 08:06:23;;;;;;;52.80;30.15;;;0.50;94.20;;;;;;5069984;28;20165;-60
2020/12/03 08:08:52;;;;;;;56.72;28.60;;;0.50;94.50;;;;;;5084321;28;20224;-59
2020/12/03 08:11:56;;;;;;;58.65;32.78;;;0.60;95.20;;;;;;5065295;28;20181;-61
2020/12/03 08:14:43;;;;;;;62.42;30.85;;;0.60;92.80;;;;;;5067075;28;20181;-60
2020/12/03 08:17:21;;;;;;;56.83;30.92;;;0.70;91.00;;;;;;5066941;28;20196;-59
2020/12/03 08:20:07;;;;;;;55.22;31.02;;;0.80;87.70;;;;;;5067326;28;20223;-59
2020/12/03 08:22:39;;;;;;;55.13;29.27;;;0.80;77.50;;;;;;5066823;28;20182;-60
2020/12/03 08:25:05;;;;;;;53.60;29.90;;;0.80;74.60;;;;;;5073006;28;20178;-60
2020/12/03 08:27:31;;;;;;;50.33;28.23;;;0.90;68.20;;;;;;5056417;28;20186;-56
2020/12/03 08:29:56;;;;;;;57.50;32.30;;;0.90;61.90;;;;;;5062332;28;20640;-60
2020/12/03 08:32:22;;;;;;;57.20;32.50;;;0.90;56.20;;;;;;5067667;28;20258;-60
2020/12/03 08:34:47;;;;;;;55.83;30.03;;;1.00;54.10;;;;;;5049958;28;20183;-60
2020/12/03 08:37:20;;;;;;;51.20;29.43;;;1.00;50.90;;;;;;5062927;28;20705;-60
2020/12/03 08:39:51;;;;;;;56.25;30.08;;;1.00;51.50;;;;;;5065710;28;20187;-60
2020/12/03 08:42:18;;;;;;;55.35;31.55;;;1.00;48.30;;;;;;5067603;28;20209;-60
2020/12/03 08:44:45;;;;;;;55.35;29.67;;;1.10;43.50;;;;;;5064861;28;20206;-60
2020/12/03 08:47:23;;;;;;;54.17;28.65;;;1.10;42.70;;;;;;5059167;28;20179;-60
2020/12/03 08:49:49;;;;;;;54.92;29.70;;;1.10;38.80;;;;;;5067762;28;20664;-56
2020/12/03 08:52:18;;;;;;;51.53;28.33;;;1.20;34.90;;;;;;5068635;28;20163;-60
2020/12/03 08:54:43;;;;;;;51.50;28.85;;;1.10;32.40;;;;;;5068590;28;20182;-59
2020/12/03 08:57:15;;;;;;;49.57;28.27;;;1.20;29.70;;;;;;5063909;28;20190;-60
2020/12/03 08:59:48;;;;;;;50.67;28.55;;;1.10;26.90;;;;;;5066256;28;20204;-60
2020/12/03 09:02:18;;;;;;;47.72;28.40;;;1.10;27.30;;;;;;5067935;28;20182;-57
2020/12/03 09:04:52;;;;;;;49.95;28.23;;;1.20;23.10;;;;;;5068359;28;20195;-60
2020/12/03 09:07:23;;;;;;;48.65;27.65;;;1.20;17.30;;;;;;5058157;28;20214;-57
2020/12/03 09:09:51;;;;;;;47.05;26.30;;;1.20;8.30;;;;;;5066406;28;20175;-60
2020/12/03 09:12:46;;;;;;;50.50;28.75;;;1.30;2.20;;;;;;5068053;28;20181;-59
2020/12/03 09:15:15;;;;;;;48.42;28.52;;;1.30;1.00;;;;;;5059477;28;20244;-59
2020/12/03 09:17:50;;;;;;;44.28;26.08;;;1.30;1.00;;;;;;5062167;28;20182;-64
2020/12/03 09:20:16;;;;;;;44.58;26.45;;;1.30;1.00;;;;;;5067237;28;20550;-59
2020/12/03 09:22:43;;;;;;;42.47;26.63;;;1.30;1.00;;;;;;5067520;28;20179;-59
2020/12/03 09:25:11;;;;;;;42.97;26.35;;;1.40;1.00;;;;;;5073186;28;20235;-58
2020/12/03 09:27:48;;;;;;;43.70;26.77;;;1.40;1.00;;;;;;5071303;28;20217;-60
2020/12/03 09:30:21;;;;;;;46.47;26.98;;;1.30;1.00;;;;;;5066306;28;20167;-57
2020/12/03 09:33:09;;;;;;;45.60;24.88;;;1.40;1.00;;;;;;5068179;28;20192;-63
2020/12/03 09:35:35;;;;;;;43.88;26.25;;;1.40;1.00;;;;;;5064345;28;20182;-65
2020/12/03 09:38:06;;;;;;;43.15;24.90;;;1.40;1.00;;;;;;5066112;28;20195;-59
2020/12/03 09:40:35;;;;;;;43.13;25.60;;;1.40;1.00;;;;;;5065832;28;20228;-66
2020/12/03 09:43:02;;;;;;;41.85;25.48;;;1.50;1.00;;;;;;5067741;28;20198;-64
2020/12/03 09:45:34;;;;;;;42.25;25.63;;;1.50;1.00;;;;;;5068026;28;20175;-66
2020/12/03 09:48:03;;;;;;;48.50;26.48;;;1.40;1.00;;;;;;5065688;28;20776;-63
2020/12/03 09:50:30;;;;;;;41.00;25.27;;;1.50;1.00;;;;;;5064394;28;20175;-65
2020/12/03 09:52:56;;;;;;;43.83;26.17;;;1.50;1.00;;;;;;5065911;28;20182;-60
2020/12/03 09:55:22;;;;;;;42.47;24.95;;;1.50;1.00;;;;;;5071446;28;20192;-61
2020/12/03 09:57:58;;;;;;;45.27;24.23;;;1.60;1.00;;;;;;5065603;28;20248;-59
2020/12/03 10:00:31;;;;;;;42.65;24.95;;;1.60;1.00;;;;;;5065264;28;20425;-59
2020/12/03 10:02:57;;;;;;;43.10;24.30;;;1.60;1.00;;;;;;5071129;28;20207;-61
2020/12/03 10:06:01;;;;;;;44.90;26.93;;;1.60;1.00;;;;;;5065436;28;20183;-59
2020/12/03 10:09:03;;;;;;;46.60;27.08;;;1.70;1.00;;;;;;5068573;28;20941;-59
2020/12/03 10:11:37;;;;;;;43.17;24.75;;;1.80;1.00;;;;;;5068603;28;20202;-59
2020/12/03 10:14:41;;;;;;;41.75;23.80;;;1.80;1.00;;;;;;5071739;28;20263;-57
2020/12/03 10:17:14;;;;;;;40.30;25.45;;;1.90;1.00;;;;;;5057290;28;20241;-57
2020/12/03 10:19:43;;;;;;;44.40;26.90;;;2.00;1.00;;;;;;5063883;28;20184;-58
2020/12/03 10:22:47;;;;;;;47.38;25.90;;;2.00;1.00;;;;;;5071235;28;20273;-56
2020/12/03 10:25:20;;;;;;;41.53;23.98;;;2.00;1.00;;;;;;5072336;28;20270;-58
2020/12/03 10:28:13;;;;;;;42.45;23.77;;;2.00;1.00;;;;;;5091827;28;20964;-58
2020/12/03 10:30:39;;;;;;;41.00;22.05;;;2.10;1.00;;;;;;5060844;28;20191;-59
2020/12/03 10:33:13;;;;;;;42.22;23.77;;;2.10;1.00;;;;;;5070294;28;21017;-59
2020/12/03 10:35:43;;;;;;;44.33;25.02;;;2.10;1.00;;;;;;5071558;28;20528;-59
2020/12/03 10:38:23;;;;;;;45.40;25.63;;;2.00;1.00;;;;;;5073001;28;20642;-58
2020/12/03 10:40:54;;;;;;;39.95;24.50;;;2.00;1.00;;;;;;5065856;28;20238;-55
2020/12/03 10:43:27;;;;;;;43.72;24.95;;;1.90;1.00;;;;;;5062858;28;20666;-59
2020/12/03 10:45:57;;;;;;;42.63;22.98;;;1.90;1.00;;;;;;5071314;28;20182;-59
2020/12/03 10:48:35;;;;;;;39.05;22.95;;;1.90;1.00;;;;;;5061873;28;20262;-58
2020/12/03 10:51:08;;;;;;;38.60;23.23;;;1.90;1.00;;;;;;5066553;28;20760;-59
2020/12/03 10:53:35;;;;;;;43.85;23.98;;;1.90;1.00;;;;;;5062889;28;20298;-56
2020/12/03 10:56:06;;;;;;;39.28;23.83;;;2.00;1.00;;;;;;5070373;28;20190;-60
2020/12/03 10:59:11;;;;;;;42.72;24.33;;;2.10;1.00;;;;;;5064850;28;20593;-59
2020/12/03 11:01:37;;;;;;;41.15;23.25;;;2.20;1.00;;;;;;5041018;28;20590;-58
2020/12/03 11:04:09;;;;;;;40.88;23.08;;;2.20;1.00;;;;;;5067528;28;20665;-53
2020/12/03 11:06:35;;;;;;;45.15;24.33;;;2.20;1.00;;;;;;5070064;28;20742;-59
2020/12/03 11:09:01;;;;;;;42.30;25.17;;;2.30;1.00;;;;;;5063274;28;20219;-58
2020/12/03 11:11:36;;;;;;;48.90;25.77;;;2.40;1.00;;;;;;5064109;28;21017;-61
2020/12/03 11:14:08;;;;;;;45.72;26.10;;;2.50;1.00;;;;;;5068455;28;20230;-58
2020/12/03 11:16:38;;;;;;;44.65;24.60;;;2.50;1.00;;;;;;5051390;28;20177;-58
2020/12/03 11:19:08;;;;;;;39.90;25.10;;;2.50;1.00;;;;;;5068084;28;20647;-59
2020/12/03 11:21:38;;;;;;;44.08;25.90;;;2.60;1.00;;;;;;5070187;28;20222;-59
2020/12/03 11:24:04;;;;;;;37.70;23.27;;;2.70;1.00;;;;;;5066392;28;20281;-59
2020/12/03 11:26:33;;;;;;;36.90;23.60;;;2.90;99.90;;;;;;5067392;28;20718;-58
2020/12/03 11:29:17;;;;;;;40.88;24.80;;;3.00;1.00;;;;;;5059584;28;20189;-59
2020/12/03 11:31:44;;;;;;;42.38;23.70;;;2.90;1.00;;;;;;5060112;28;20650;-59
2020/12/03 11:34:10;;;;;;;42.85;25.15;;;2.80;99.90;;;;;;5067601;28;20218;-59
2020/12/03 11:36:40;;;;;;;45.85;26.42;;;2.80;1.00;;;;;;5056760;28;20211;-58
2020/12/03 11:39:08;;;;;;;40.13;24.60;;;2.80;99.90;;;;;;5059774;28;20192;-58
2020/12/03 11:48:56;;;;;;;42.00;24.23;;;3.10;99.90;;;;;;5069477;28;20258;-59
2020/12/03 11:51:33;;;;;;;37.28;23.05;;;3.00;1.00;;;;;;5050866;28;20226;-58
2020/12/03 11:54:01;;;;;;;36.47;21.58;;;3.10;1.00;;;;;;5055240;28;20218;-59
2020/12/03 11:56:28;;;;;;;39.55;22.75;;;3.10;1.00;;;;;;5063074;28;20201;-62
2020/12/03 11:59:13;;;;;;;40.67;21.65;;;3.20;1.00;;;;;;5069237;28;20203;-63
2020/12/03 12:01:39;;;;;;;36.38;21.73;;;2.90;99.90;;;;;;5060037;28;20185;-64
2020/12/03 12:04:08;;;;;;;38.70;23.02;;;2.90;99.90;;;;;;5056734;28;20208;-63
2020/12/03 12:06:45;;;;;;;39.00;22.25;;;2.80;1.00;;;;;;5051814;28;20172;-64
2020/12/03 12:09:20;;;;;;;44.90;24.02;;;2.50;99.90;;;;;;5065383;28;20207;-63
2020/12/03 12:11:46;;;;;;;40.80;23.17;;;2.50;1.00;;;;;;5057874;28;20180;-60
2020/12/03 12:14:12;;;;;;;38.60;22.30;;;2.50;20.70;;;;;;5059651;28;20194;-58
2020/12/03 12:16:38;;;;;;;37.60;21.90;;;2.40;99.90;;;;;;5063816;28;20192;-56
2020/12/03 12:19:04;;;;;;;40.20;21.63;;;2.30;99.90;;;;;;5066749;28;20176;-58
2020/12/03 12:21:32;;;;;;;36.53;22.15;;;2.30;99.90;;;;;;5066734;28;20188;-57
2020/12/03 12:23:58;;;;;;;40.80;22.80;;;2.20;99.90;;;;;;5067708;28;20192;-58
2020/12/03 12:26:24;;;;;;;41.20;23.20;;;2.20;1.00;;;;;;5067422;28;20530;-58
2020/12/03 12:28:50;;;;;;;37.13;21.77;;;2.10;1.00;;;;;;5066420;28;20187;-59
2020/12/03 12:31:16;;;;;;;40.13;22.60;;;2.20;1.00;;;;;;5067071;28;20721;-64
2020/12/03 12:33:42;;;;;;;41.35;22.52;;;2.10;1.00;;;;;;5067518;28;20184;-63
2020/12/03 12:36:08;;;;;;;39.23;22.27;;;2.20;1.00;;;;;;5067666;28;20176;-61
2020/12/03 12:38:34;;;;;;;41.93;23.67;;;2.30;1.00;;;;;;5066881;28;20445;-56
2020/12/03 12:40:59;;;;;;;37.03;22.27;;;2.30;1.00;;;;;;5067377;28;20466;-54
2020/12/03 12:43:26;;;;;;;37.17;21.33;;;2.40;99.90;;;;;;5063817;28;20991;-55
2020/12/03 12:45:51;;;;;;;38.73;22.00;;;2.50;1.00;;;;;;5066427;28;20188;-61
2020/12/03 12:48:17;;;;;;;37.17;22.53;;;2.60;1.00;;;;;;5066017;28;20180;-64
2020/12/03 12:50:42;;;;;;;37.83;22.40;;;2.80;1.00;;;;;;5061838;28;20192;-65
2020/12/03 12:53:08;;;;;;;37.67;23.83;;;2.90;26.70;;;;;;5065853;28;20539;-63
2020/12/03 12:55:34;;;;;;;37.57;22.33;;;2.70;99.90;;;;;;5067158;28;20194;-61
2020/12/03 12:58:00;;;;;;;39.40;22.60;;;2.70;1.00;;;;;;5067484;28;20183;-63
2020/12/03 13:00:25;;;;;;;37.83;21.50;;;2.70;1.00;;;;;;5068084;28;20422;-62
2020/12/03 13:02:51;;;;;;;33.77;20.60;;;2.60;99.90;;;;;;5068477;28;20426;-62
2020/12/03 13:05:18;;;;;;;36.80;21.80;;;2.50;1.00;;;;;;5068443;28;20414;-62
2020/12/03 13:07:44;;;;;;;39.45;21.63;;;2.50;99.90;;;;;;5064755;28;20262;-63
2020/12/03 13:10:09;;;;;;;36.40;21.73;;;2.40;1.00;;;;;;5062208;28;20267;-58
2020/12/03 13:12:35;;;;;;;37.67;22.17;;;2.30;1.00;;;;;;5068012;28;20180;-57
2020/12/03 13:15:01;;;;;;;42.97;23.67;;;2.20;99.90;;;;;;5063157;28;20687;-59